createdAt,value
2023-06-16T00:00:00.977Z,16.58
2023-06-16T00:00:33.980Z,16.60
2023-06-16T00:01:09.344Z,16.60
2023-06-16T00:01:41.205Z,16.61
2023-06-16T00:02:14.767Z,16.61
2023-06-16T00:02:46.894Z,16.62
2023-06-16T00:03:18.767Z,16.64
2023-06-16T00:03:53.977Z,16.65
2023-06-16T00:04:28.472Z,16.63
2023-06-16T00:05:02.395Z,16.61
2023-06-16T00:05:36.033Z,16.60
2023-06-16T00:06:15.226Z,16.63
2023-06-16T00:06:48.525Z,16.65
2023-06-16T00:07:21.317Z,16.63
2023-06-16T00:07:53.336Z,16.64
2023-06-16T00:08:25.214Z,16.65
2023-06-16T00:08:59.295Z,16.67
2023-06-16T00:09:31.691Z,16.67
2023-06-16T00:10:06.312Z,16.69
2023-06-16T00:10:38.160Z,16.68
2023-06-16T00:11:10.094Z,16.69
2023-06-16T00:11:42.031Z,16.68
2023-06-16T00:12:14.510Z,16.69
2023-06-16T00:12:46.343Z,16.70
2023-06-16T00:13:18.153Z,16.70
2023-06-16T00:13:51.333Z,16.72
2023-06-16T00:14:23.170Z,16.71
2023-06-16T00:14:55.012Z,16.72
2023-06-16T00:15:26.942Z,16.75
2023-06-16T00:15:58.774Z,16.75
2023-06-16T00:16:31.008Z,16.75
2023-06-16T00:17:04.890Z,16.77
2023-06-16T00:17:45.612Z,16.78
2023-06-16T00:18:18.024Z,16.80
2023-06-16T00:18:54.698Z,16.75
2023-06-16T00:19:29.911Z,16.73
2023-06-16T00:20:01.846Z,16.74
2023-06-16T00:20:33.787Z,16.73
2023-06-16T00:21:10.213Z,16.75
2023-06-16T00:21:44.962Z,16.79
2023-06-16T00:22:17.107Z,16.77
2023-06-16T00:22:49.368Z,16.77
2023-06-16T00:23:22.222Z,16.77
2023-06-16T00:23:54.947Z,16.76
2023-06-16T00:24:29.559Z,16.76
2023-06-16T00:25:01.760Z,16.77
2023-06-16T00:25:33.617Z,16.78
2023-06-16T00:26:05.548Z,16.78
2023-06-16T00:26:38.300Z,16.76
2023-06-16T00:27:10.179Z,16.77
2023-06-16T00:27:42.040Z,16.74
2023-06-16T00:28:13.872Z,16.76
2023-06-16T00:28:45.700Z,16.76
2023-06-16T00:29:17.519Z,16.76
2023-06-16T00:29:50.602Z,16.75
2023-06-16T00:30:22.581Z,16.74
2023-06-16T00:30:54.511Z,16.73
2023-06-16T00:31:32.587Z,16.75
2023-06-16T00:32:04.769Z,16.73
2023-06-16T00:32:36.657Z,16.71
2023-06-16T00:33:08.557Z,16.70
2023-06-16T00:33:40.449Z,16.70
2023-06-16T00:34:12.612Z,16.69
2023-06-16T00:34:44.602Z,16.67
2023-06-16T00:35:16.423Z,16.69
2023-06-16T00:35:48.275Z,16.67
2023-06-16T00:36:20.224Z,16.69
2023-06-16T00:36:52.039Z,16.66
2023-06-16T00:37:23.962Z,16.65
2023-06-16T00:37:55.783Z,16.64
2023-06-16T00:38:31.506Z,16.62
2023-06-16T00:39:03.521Z,16.61
2023-06-16T00:39:35.584Z,16.62
2023-06-16T00:40:08.238Z,16.61
2023-06-16T00:40:40.092Z,16.59
2023-06-16T00:41:11.939Z,16.60
2023-06-16T00:41:43.761Z,16.61
2023-06-16T00:42:15.629Z,16.61
2023-06-16T00:42:47.449Z,16.61
2023-06-16T00:43:19.278Z,16.60
2023-06-16T00:43:52.263Z,16.60
2023-06-16T00:44:24.088Z,16.60
2023-06-16T00:44:55.900Z,16.59
2023-06-16T00:45:27.819Z,16.59
2023-06-16T00:45:59.691Z,16.56
2023-06-16T00:46:36.685Z,16.58
2023-06-16T00:47:08.897Z,16.57
2023-06-16T00:47:41.362Z,16.57
2023-06-16T00:48:13.834Z,16.55
2023-06-16T00:48:45.857Z,16.52
2023-06-16T00:49:18.286Z,16.51
2023-06-16T00:49:50.130Z,16.51
2023-06-16T00:50:22.480Z,16.51
2023-06-16T00:50:56.267Z,16.52
2023-06-16T00:51:29.969Z,16.54
2023-06-16T00:52:04.339Z,16.52
2023-06-16T00:52:38.631Z,16.53
2023-06-16T00:53:11.245Z,16.53
2023-06-16T00:53:43.143Z,16.54
2023-06-16T00:54:15.081Z,16.54
2023-06-16T00:54:47.113Z,16.50
2023-06-16T00:55:22.670Z,16.51
2023-06-16T00:55:54.648Z,16.46
2023-06-16T00:56:28.198Z,16.49
2023-06-16T00:57:01.040Z,16.48
2023-06-16T00:57:34.860Z,16.49
2023-06-16T00:58:06.747Z,16.48
2023-06-16T00:58:38.920Z,16.48
2023-06-16T00:59:10.914Z,16.47
2023-06-16T00:59:43.024Z,16.47
2023-06-16T01:00:15.081Z,16.46
2023-06-16T01:00:47.444Z,16.48
2023-06-16T01:01:20.016Z,16.50
2023-06-16T01:01:51.869Z,16.51
2023-06-16T01:02:23.827Z,16.52
2023-06-16T01:02:57.167Z,16.49
2023-06-16T01:03:30.096Z,16.50
2023-06-16T01:04:02.776Z,16.51
2023-06-16T01:04:34.956Z,16.50
2023-06-16T01:05:09.790Z,16.51
2023-06-16T01:05:41.792Z,16.52
2023-06-16T01:06:30.382Z,16.55
2023-06-16T01:07:13.137Z,16.55
2023-06-16T01:08:05.806Z,16.53
2023-06-16T01:08:51.368Z,16.54
2023-06-16T01:09:33.866Z,16.57
2023-06-16T01:10:14.377Z,16.58
2023-06-16T01:11:12.711Z,16.58
2023-06-16T01:12:18.142Z,16.60
2023-06-16T01:13:11.601Z,16.61
2023-06-16T01:14:04.738Z,16.59
2023-06-16T01:14:58.474Z,16.60
2023-06-16T01:15:32.935Z,16.60
2023-06-16T01:16:08.337Z,16.61
2023-06-16T01:16:42.434Z,16.63
2023-06-16T01:17:19.209Z,16.66
2023-06-16T01:17:56.952Z,16.63
2023-06-16T01:18:31.051Z,16.65
2023-06-16T01:19:14.999Z,16.68
2023-06-16T01:19:54.796Z,16.70
2023-06-16T01:20:43.519Z,16.68
2023-06-16T01:22:05.979Z,16.71
2023-06-16T01:22:57.820Z,16.70
2023-06-16T01:24:06.834Z,16.70
2023-06-16T01:24:43.315Z,16.70
2023-06-16T01:25:16.616Z,16.69
2023-06-16T01:25:50.758Z,16.70
2023-06-16T01:26:25.128Z,16.68
2023-06-16T01:26:59.318Z,16.67
2023-06-16T01:27:33.452Z,16.67
2023-06-16T01:28:09.085Z,16.69
2023-06-16T01:28:43.582Z,16.70
2023-06-16T01:29:16.198Z,16.69
2023-06-16T01:29:52.829Z,16.72
2023-06-16T01:30:27.370Z,16.72
2023-06-16T01:31:01.683Z,16.73
2023-06-16T01:31:36.048Z,16.72
2023-06-16T01:32:10.606Z,16.70
2023-06-16T01:32:49.239Z,16.70
2023-06-16T01:33:24.675Z,16.71
2023-06-16T01:33:57.788Z,16.73
2023-06-16T01:34:30.567Z,16.70
2023-06-16T01:35:03.193Z,16.70
2023-06-16T01:35:35.772Z,16.67
2023-06-16T01:36:08.916Z,16.65
2023-06-16T01:36:42.795Z,16.69
2023-06-16T01:37:16.822Z,16.69
2023-06-16T01:37:51.842Z,16.71
2023-06-16T01:38:25.283Z,16.71
2023-06-16T01:38:58.034Z,16.71
2023-06-16T01:39:31.697Z,16.71
2023-06-16T01:40:04.873Z,16.74
2023-06-16T01:40:37.861Z,16.75
2023-06-16T01:41:11.533Z,16.76
2023-06-16T01:41:44.514Z,16.77
2023-06-16T01:42:18.309Z,16.78
2023-06-16T01:42:52.825Z,16.76
2023-06-16T01:43:26.185Z,16.77
2023-06-16T01:43:59.650Z,16.78
2023-06-16T01:44:34.617Z,16.76
2023-06-16T01:45:07.745Z,16.77
2023-06-16T01:45:40.896Z,16.73
2023-06-16T01:46:14.896Z,16.73
2023-06-16T01:46:48.706Z,16.70
2023-06-16T01:47:22.004Z,16.71
2023-06-16T01:47:56.160Z,16.73
2023-06-16T01:48:28.398Z,16.71
2023-06-16T01:49:01.341Z,16.73
2023-06-16T01:49:34.528Z,16.74
2023-06-16T01:50:07.086Z,16.73
2023-06-16T01:50:38.973Z,16.72
2023-06-16T01:51:11.562Z,16.73
2023-06-16T01:51:43.563Z,16.72
2023-06-16T01:52:15.674Z,16.70
2023-06-16T01:52:47.497Z,16.69
2023-06-16T01:53:19.458Z,16.70
2023-06-16T01:53:52.023Z,16.72
2023-06-16T01:54:23.862Z,16.71
2023-06-16T01:54:55.906Z,16.71
2023-06-16T01:55:27.730Z,16.71
2023-06-16T01:55:59.558Z,16.68
2023-06-16T01:56:31.717Z,16.70
2023-06-16T01:57:05.578Z,16.68
2023-06-16T01:57:37.703Z,16.69
2023-06-16T01:58:09.641Z,16.69
2023-06-16T01:58:41.700Z,16.70
2023-06-16T01:59:13.737Z,16.72
2023-06-16T01:59:55.485Z,16.72
2023-06-16T02:00:31.121Z,16.70
2023-06-16T02:01:14.314Z,16.65
2023-06-16T02:01:52.498Z,16.66
2023-06-16T02:02:30.738Z,16.67
2023-06-16T02:03:13.061Z,16.66
2023-06-16T02:03:57.403Z,16.68
2023-06-16T02:04:33.498Z,16.67
2023-06-16T02:05:08.404Z,16.66
2023-06-16T02:05:45.213Z,16.64
2023-06-16T02:06:22.254Z,16.64
2023-06-16T02:07:03.610Z,16.64
2023-06-16T02:07:42.313Z,16.61
2023-06-16T02:08:17.308Z,16.63
2023-06-16T02:08:51.441Z,16.63
2023-06-16T02:09:26.806Z,16.64
2023-06-16T02:10:00.394Z,16.60
2023-06-16T02:10:32.544Z,16.61
2023-06-16T02:11:04.722Z,16.60
2023-06-16T02:11:37.870Z,16.62
2023-06-16T02:12:12.698Z,16.60
2023-06-16T02:12:44.659Z,16.58
2023-06-16T02:13:16.857Z,16.55
2023-06-16T02:13:49.633Z,16.56
2023-06-16T02:14:22.864Z,16.57
2023-06-16T02:14:54.805Z,16.55
2023-06-16T02:15:28.584Z,16.58
2023-06-16T02:16:01.086Z,16.59
2023-06-16T02:16:41.041Z,16.59
2023-06-16T02:17:14.236Z,16.60
2023-06-16T02:17:47.207Z,16.59
2023-06-16T02:18:33.587Z,16.60
2023-06-16T02:19:05.590Z,16.60
2023-06-16T02:19:39.649Z,16.60
2023-06-16T02:20:12.950Z,16.61
2023-06-16T02:20:46.162Z,16.57
2023-06-16T02:21:18.000Z,16.60
2023-06-16T02:21:49.821Z,16.59
2023-06-16T02:22:22.623Z,16.60
2023-06-16T02:22:55.502Z,16.62
2023-06-16T02:23:27.447Z,16.61
2023-06-16T02:23:59.301Z,16.61
2023-06-16T02:24:32.503Z,16.59
2023-06-16T02:25:04.902Z,16.61
2023-06-16T02:25:36.749Z,16.61
2023-06-16T02:26:08.581Z,16.62
2023-06-16T02:26:40.435Z,16.63
2023-06-16T02:27:13.114Z,16.63
2023-06-16T02:27:45.274Z,16.61
2023-06-16T02:28:17.710Z,16.60
2023-06-16T02:28:49.972Z,16.63
2023-06-16T02:29:21.972Z,16.63
2023-06-16T02:29:53.857Z,16.62
2023-06-16T02:30:25.969Z,16.61
2023-06-16T02:30:57.816Z,16.61
2023-06-16T02:31:29.816Z,16.61
2023-06-16T02:32:01.669Z,16.64
2023-06-16T02:33:08.299Z,16.64
2023-06-16T02:33:41.878Z,16.63
2023-06-16T02:34:14.116Z,16.63
2023-06-16T02:34:45.935Z,16.64
2023-06-16T02:35:17.794Z,16.63
2023-06-16T02:35:49.669Z,16.61
2023-06-16T02:36:21.671Z,16.63
2023-06-16T02:36:53.497Z,16.64
2023-06-16T02:37:26.723Z,16.62
2023-06-16T02:37:58.586Z,16.62
2023-06-16T02:38:31.290Z,16.61
2023-06-16T02:39:03.196Z,16.61
2023-06-16T02:39:35.020Z,16.62
2023-06-16T02:40:07.534Z,16.65
2023-06-16T02:40:39.371Z,16.62
2023-06-16T02:41:11.191Z,16.59
2023-06-16T02:41:43.399Z,16.59
2023-06-16T02:42:15.222Z,16.62
2023-06-16T02:42:48.548Z,16.59
2023-06-16T02:43:20.364Z,16.58
2023-06-16T02:43:52.186Z,16.57
2023-06-16T02:44:24.002Z,16.59
2023-06-16T02:44:55.873Z,16.60
2023-06-16T02:45:27.682Z,16.59
2023-06-16T02:46:02.219Z,16.57
2023-06-16T02:46:34.040Z,16.58
2023-06-16T02:47:06.308Z,16.56
2023-06-16T02:47:38.190Z,16.57
2023-06-16T02:48:10.090Z,16.56
2023-06-16T02:48:42.003Z,16.55
2023-06-16T02:49:13.813Z,16.51
2023-06-16T02:49:46.613Z,16.54
2023-06-16T02:50:19.902Z,16.57
2023-06-16T02:50:52.862Z,16.55
2023-06-16T02:51:24.679Z,16.55
2023-06-16T02:51:56.517Z,16.56
2023-06-16T02:52:28.637Z,16.57
2023-06-16T02:53:00.464Z,16.60
2023-06-16T02:53:34.893Z,16.59
2023-06-16T02:54:07.694Z,16.62
2023-06-16T02:54:41.490Z,16.60
2023-06-16T02:55:16.709Z,16.61
2023-06-16T02:55:48.649Z,16.59
2023-06-16T02:56:22.210Z,16.62
2023-06-16T02:56:54.161Z,16.63
2023-06-16T02:57:26.020Z,16.63
2023-06-16T02:57:57.874Z,16.63
2023-06-16T02:58:29.691Z,16.65
2023-06-16T02:59:01.543Z,16.67
2023-06-16T02:59:33.354Z,16.68
2023-06-16T03:00:10.207Z,16.70
2023-06-16T03:00:42.096Z,16.71
2023-06-16T03:01:15.551Z,16.72
2023-06-16T03:01:47.450Z,16.71
2023-06-16T03:02:19.327Z,16.73
2023-06-16T03:02:51.286Z,16.75
2023-06-16T03:03:23.203Z,16.73
2023-06-16T03:03:55.151Z,16.74
2023-06-16T03:04:28.321Z,16.74
2023-06-16T03:05:00.175Z,16.72
2023-06-16T03:05:32.699Z,16.73
2023-06-16T03:06:04.640Z,16.72
2023-06-16T03:06:36.655Z,16.71
2023-06-16T03:07:08.566Z,16.67
2023-06-16T03:07:40.535Z,16.66
2023-06-16T03:08:12.666Z,16.64
2023-06-16T03:08:44.510Z,16.62
2023-06-16T03:09:16.582Z,16.61
2023-06-16T03:09:48.494Z,16.61
2023-06-16T03:10:20.525Z,16.61
2023-06-16T03:10:52.748Z,16.60
2023-06-16T03:11:24.647Z,16.56
2023-06-16T03:11:57.103Z,16.54
2023-06-16T03:12:28.978Z,16.55
2023-06-16T03:13:00.824Z,16.56
2023-06-16T03:13:32.674Z,16.55
2023-06-16T03:14:04.596Z,16.54
2023-06-16T03:14:36.494Z,16.55
2023-06-16T03:15:08.631Z,16.54
2023-06-16T03:15:41.124Z,16.56
2023-06-16T03:16:13.336Z,16.55
2023-06-16T03:16:45.645Z,16.51
2023-06-16T03:17:21.682Z,16.51
2023-06-16T03:17:53.818Z,16.52
2023-06-16T03:18:25.733Z,16.51
2023-06-16T03:18:57.594Z,16.52
2023-06-16T03:19:29.494Z,16.54
2023-06-16T03:20:01.347Z,16.54
2023-06-16T03:20:36.127Z,16.55
2023-06-16T03:21:07.972Z,16.50
2023-06-16T03:21:41.185Z,16.47
2023-06-16T03:22:12.996Z,16.48
2023-06-16T03:22:44.841Z,16.48
2023-06-16T03:23:16.772Z,16.45
2023-06-16T03:23:49.228Z,16.44
2023-06-16T03:24:21.119Z,16.47
2023-06-16T03:24:52.996Z,16.49
2023-06-16T03:25:24.824Z,16.52
2023-06-16T03:25:57.804Z,16.52
2023-06-16T03:26:29.612Z,16.50
2023-06-16T03:27:04.611Z,16.50
2023-06-16T03:27:38.447Z,16.50
2023-06-16T03:28:10.387Z,16.47
2023-06-16T03:28:42.261Z,16.48
2023-06-16T03:29:14.299Z,16.48
2023-06-16T03:29:46.221Z,16.48
2023-06-16T03:30:18.696Z,16.47
2023-06-16T03:30:53.642Z,16.48
2023-06-16T03:31:25.692Z,16.51
2023-06-16T03:31:57.573Z,16.52
2023-06-16T03:32:29.434Z,16.54
2023-06-16T03:33:01.321Z,16.54
2023-06-16T03:33:33.317Z,16.54
2023-06-16T03:34:19.313Z,16.54
2023-06-16T03:34:56.278Z,16.48
2023-06-16T03:35:28.085Z,16.51
2023-06-16T03:35:59.913Z,16.50
2023-06-16T03:36:37.014Z,16.51
2023-06-16T03:37:08.859Z,16.54
2023-06-16T03:37:41.068Z,16.52
2023-06-16T03:38:12.897Z,16.52
2023-06-16T03:38:44.788Z,16.54
2023-06-16T03:39:17.037Z,16.53
2023-06-16T03:39:48.872Z,16.54
2023-06-16T03:40:20.960Z,16.55
2023-06-16T03:40:52.959Z,16.55
2023-06-16T03:41:24.826Z,16.55
2023-06-16T03:41:56.628Z,16.52
2023-06-16T03:42:28.440Z,16.54
2023-06-16T03:43:00.299Z,16.58
2023-06-16T03:43:32.155Z,16.57
2023-06-16T03:44:05.054Z,16.57
2023-06-16T03:44:36.861Z,16.61
2023-06-16T03:45:08.932Z,16.62
2023-06-16T03:45:40.822Z,16.62
2023-06-16T03:46:12.899Z,16.61
2023-06-16T03:46:44.815Z,16.59
2023-06-16T03:47:17.504Z,16.58
2023-06-16T03:47:49.470Z,16.60
2023-06-16T03:48:21.458Z,16.60
2023-06-16T03:48:53.315Z,16.59
2023-06-16T03:49:25.410Z,16.62
2023-06-16T03:49:57.352Z,16.62
2023-06-16T03:50:29.165Z,16.62
2023-06-16T03:51:01.243Z,16.63
2023-06-16T03:51:34.764Z,16.63
2023-06-16T03:52:07.283Z,16.61
2023-06-16T03:52:39.117Z,16.62
2023-06-16T03:53:16.641Z,16.61
2023-06-16T03:53:48.985Z,16.59
2023-06-16T03:54:21.154Z,16.60
2023-06-16T03:54:53.038Z,16.60
2023-06-16T03:55:24.896Z,16.58
2023-06-16T03:55:56.735Z,16.57
2023-06-16T03:56:28.622Z,16.57
2023-06-16T03:57:00.449Z,16.56
2023-06-16T03:57:32.422Z,16.57
2023-06-16T03:58:04.302Z,16.55
2023-06-16T03:58:37.094Z,16.56
2023-06-16T03:59:10.186Z,16.56
2023-06-16T03:59:42.558Z,16.57
2023-06-16T04:00:14.702Z,16.58
2023-06-16T04:00:46.521Z,16.56
2023-06-16T04:01:22.253Z,16.56
2023-06-16T04:01:54.218Z,16.57
2023-06-16T04:02:26.542Z,16.58
2023-06-16T04:02:58.507Z,16.59
2023-06-16T04:03:31.211Z,16.60
2023-06-16T04:04:04.730Z,16.58
2023-06-16T04:04:37.305Z,16.62
2023-06-16T04:05:10.237Z,16.62
2023-06-16T04:05:42.566Z,16.61
2023-06-16T04:06:14.386Z,16.60
2023-06-16T04:06:46.402Z,16.61
2023-06-16T04:07:18.648Z,16.61
2023-06-16T04:07:50.672Z,16.61
2023-06-16T04:08:22.499Z,16.59
2023-06-16T04:08:57.925Z,16.61
2023-06-16T04:09:33.436Z,16.64
2023-06-16T04:10:05.745Z,16.65
2023-06-16T04:10:38.990Z,16.65
2023-06-16T04:11:10.832Z,16.63
2023-06-16T04:11:42.681Z,16.64
2023-06-16T04:12:14.531Z,16.67
2023-06-16T04:12:46.360Z,16.65
2023-06-16T04:13:18.196Z,16.68
2023-06-16T04:13:50.253Z,16.70
2023-06-16T04:14:24.335Z,16.71
2023-06-16T04:14:57.329Z,16.73
2023-06-16T04:15:29.149Z,16.73
2023-06-16T04:16:01.147Z,16.74
2023-06-16T04:16:33.044Z,16.74
2023-06-16T04:17:05.226Z,16.75
2023-06-16T04:17:37.118Z,16.73
2023-06-16T04:18:09.031Z,16.74
2023-06-16T04:18:40.950Z,16.73
2023-06-16T04:19:13.287Z,16.73
2023-06-16T04:19:47.234Z,16.78
2023-06-16T04:20:19.254Z,16.79
2023-06-16T04:20:52.036Z,16.81
2023-06-16T04:21:23.921Z,16.83
2023-06-16T04:21:56.474Z,16.85
2023-06-16T04:22:28.327Z,16.86
2023-06-16T04:23:00.175Z,16.87
2023-06-16T04:23:32.018Z,16.86
2023-06-16T04:24:04.241Z,16.89
2023-06-16T04:24:36.720Z,16.90
2023-06-16T04:25:10.424Z,16.89
2023-06-16T04:25:42.590Z,16.89
2023-06-16T04:26:16.306Z,16.94
2023-06-16T04:26:49.552Z,16.93
2023-06-16T04:27:24.118Z,16.92
2023-06-16T04:27:56.020Z,16.94
2023-06-16T04:28:28.741Z,16.98
2023-06-16T04:29:04.898Z,16.98
2023-06-16T04:29:43.266Z,16.99
2023-06-16T04:30:15.703Z,16.99
2023-06-16T04:30:47.627Z,17.00
2023-06-16T04:31:21.346Z,17.00
2023-06-16T04:31:53.251Z,16.97
2023-06-16T04:32:25.151Z,16.96
2023-06-16T04:33:00.284Z,16.98
2023-06-16T04:33:32.293Z,16.96
2023-06-16T04:34:07.017Z,16.99
2023-06-16T04:34:41.793Z,16.98
2023-06-16T04:35:13.761Z,16.97
2023-06-16T04:35:45.624Z,17.00
2023-06-16T04:36:20.689Z,17.00
2023-06-16T04:36:52.850Z,17.00
2023-06-16T04:37:24.823Z,17.03
2023-06-16T04:37:58.310Z,17.05
2023-06-16T04:38:32.908Z,17.02
2023-06-16T04:39:04.961Z,17.02
2023-06-16T04:39:37.115Z,17.01
2023-06-16T04:40:09.651Z,17.03
2023-06-16T04:40:41.514Z,17.05
2023-06-16T04:41:13.331Z,17.08
2023-06-16T04:41:45.146Z,17.09
2023-06-16T04:42:16.963Z,17.11
2023-06-16T04:42:48.784Z,17.09
2023-06-16T04:43:20.619Z,17.11
2023-06-16T04:43:52.475Z,17.13
2023-06-16T04:44:24.850Z,17.15
2023-06-16T04:44:56.889Z,17.14
2023-06-16T04:45:29.145Z,17.14
2023-06-16T04:46:01.011Z,17.13
2023-06-16T04:46:32.975Z,17.19
2023-06-16T04:47:05.244Z,17.14
2023-06-16T04:47:37.132Z,17.16
2023-06-16T04:48:09.087Z,17.13
2023-06-16T04:48:41.021Z,17.12
2023-06-16T04:49:12.922Z,17.17
2023-06-16T04:49:44.747Z,17.19
2023-06-16T04:50:16.851Z,17.19
2023-06-16T04:50:48.946Z,17.18
2023-06-16T04:51:20.820Z,17.15
2023-06-16T04:51:52.694Z,17.19
2023-06-16T04:52:26.152Z,17.22
2023-06-16T04:52:58.325Z,17.23
2023-06-16T04:53:30.211Z,17.24
2023-06-16T04:54:02.152Z,17.25
2023-06-16T04:54:34.205Z,17.29
2023-06-16T04:55:06.646Z,17.27
2023-06-16T04:55:39.080Z,17.25
2023-06-16T04:56:11.125Z,17.26
2023-06-16T04:56:43.803Z,17.27
2023-06-16T04:57:15.626Z,17.30
2023-06-16T04:57:47.471Z,17.31
2023-06-16T04:58:19.287Z,17.30
2023-06-16T04:58:51.108Z,17.33
2023-06-16T04:59:23.982Z,17.33
2023-06-16T04:59:56.045Z,17.31
2023-06-16T05:00:30.483Z,17.32
2023-06-16T05:01:02.339Z,17.33
2023-06-16T05:01:34.185Z,17.36
2023-06-16T05:02:06.472Z,17.34
2023-06-16T05:02:39.194Z,17.34
2023-06-16T05:03:11.432Z,17.35
2023-06-16T05:03:43.472Z,17.31
2023-06-16T05:04:15.335Z,17.28
2023-06-16T05:04:47.166Z,17.32
2023-06-16T05:05:19.046Z,17.28
2023-06-16T05:05:51.417Z,17.31
2023-06-16T05:06:23.533Z,17.24
2023-06-16T05:06:55.585Z,17.19
2023-06-16T05:07:27.438Z,17.24
2023-06-16T05:07:59.923Z,17.21
2023-06-16T05:08:32.069Z,17.27
2023-06-16T05:09:05.351Z,17.26
2023-06-16T05:09:37.195Z,17.25
2023-06-16T05:10:09.705Z,17.29
2023-06-16T05:10:41.990Z,17.30
2023-06-16T05:11:13.820Z,17.27
2023-06-16T05:11:45.874Z,17.28
2023-06-16T05:12:17.767Z,17.27
2023-06-16T05:12:49.589Z,17.27
2023-06-16T05:13:21.641Z,17.29
2023-06-16T05:13:53.542Z,17.28
2023-06-16T05:14:25.474Z,17.33
2023-06-16T05:14:57.412Z,17.30
2023-06-16T05:15:30.091Z,17.30
2023-06-16T05:16:01.929Z,17.27
2023-06-16T05:16:33.762Z,17.28
2023-06-16T05:17:06.209Z,17.33
2023-06-16T05:17:38.745Z,17.27
2023-06-16T05:18:10.736Z,17.27
2023-06-16T05:18:42.856Z,17.30
2023-06-16T05:19:16.040Z,17.30
2023-06-16T05:19:48.082Z,17.31
2023-06-16T05:20:20.437Z,17.32
2023-06-16T05:20:52.514Z,17.31
2023-06-16T05:21:26.998Z,17.34
2023-06-16T05:21:59.625Z,17.34
2023-06-16T05:22:31.525Z,17.36
2023-06-16T05:23:04.649Z,17.36
2023-06-16T05:23:37.438Z,17.35
2023-06-16T05:24:09.375Z,17.30
2023-06-16T05:24:41.336Z,17.35
2023-06-16T05:25:13.333Z,17.35
2023-06-16T05:25:46.430Z,17.40
2023-06-16T05:26:18.261Z,17.41
2023-06-16T05:26:50.086Z,17.43
2023-06-16T05:27:27.043Z,17.45
2023-06-16T05:27:58.942Z,17.45
2023-06-16T05:28:30.844Z,17.45
2023-06-16T05:29:02.672Z,17.48
2023-06-16T05:29:34.493Z,17.50
2023-06-16T05:30:07.395Z,17.51
2023-06-16T05:30:39.262Z,17.53
2023-06-16T05:31:11.196Z,17.54
2023-06-16T05:31:43.050Z,17.52
2023-06-16T05:32:14.872Z,17.53
2023-06-16T05:32:46.760Z,17.53
2023-06-16T05:33:18.595Z,17.56
2023-06-16T05:33:50.434Z,17.47
2023-06-16T05:34:22.294Z,17.48
2023-06-16T05:34:54.683Z,17.47
2023-06-16T05:35:26.560Z,17.54
2023-06-16T05:35:58.465Z,17.57
2023-06-16T05:36:31.906Z,17.58
2023-06-16T05:37:03.859Z,17.60
2023-06-16T05:37:35.715Z,17.55
2023-06-16T05:38:07.582Z,17.57
2023-06-16T05:38:39.415Z,17.61
2023-06-16T05:39:14.653Z,17.59
2023-06-16T05:39:47.884Z,17.63
2023-06-16T05:40:20.068Z,17.66
2023-06-16T05:40:52.080Z,17.64
2023-06-16T05:41:26.068Z,17.62
2023-06-16T05:41:57.930Z,17.63
2023-06-16T05:42:29.785Z,17.63
2023-06-16T05:43:01.707Z,17.62
2023-06-16T05:43:33.637Z,17.64
2023-06-16T05:44:05.838Z,17.64
2023-06-16T05:44:37.887Z,17.64
2023-06-16T05:45:10.070Z,17.60
2023-06-16T05:45:41.948Z,17.62
2023-06-16T05:46:15.924Z,17.62
2023-06-16T05:46:47.749Z,17.66
2023-06-16T05:47:21.065Z,17.68
2023-06-16T05:47:52.916Z,17.65
2023-06-16T05:48:24.760Z,17.71
2023-06-16T05:48:56.680Z,17.75
2023-06-16T05:49:28.548Z,17.75
2023-06-16T05:50:01.025Z,17.77
2023-06-16T05:50:33.049Z,17.71
2023-06-16T05:51:05.053Z,17.69
2023-06-16T05:51:37.007Z,17.71
2023-06-16T05:52:09.161Z,17.68
2023-06-16T05:52:41.080Z,17.71
2023-06-16T05:53:13.048Z,17.74
2023-06-16T05:53:44.973Z,17.82
2023-06-16T05:54:16.812Z,17.87
2023-06-16T05:54:48.630Z,17.89
2023-06-16T05:55:20.611Z,17.94
2023-06-16T05:55:53.204Z,17.93
2023-06-16T05:56:25.232Z,17.92
2023-06-16T05:56:57.755Z,17.93
2023-06-16T05:57:29.611Z,17.95
2023-06-16T05:58:02.205Z,17.99
2023-06-16T05:58:37.386Z,18.02
2023-06-16T05:59:09.254Z,18.06
2023-06-16T05:59:41.108Z,18.03
2023-06-16T06:00:13.471Z,18.01
2023-06-16T06:00:45.294Z,18.04
2023-06-16T06:01:17.111Z,18.06
2023-06-16T06:01:50.578Z,18.03
2023-06-16T06:02:22.631Z,18.02
2023-06-16T06:02:54.678Z,18.00
2023-06-16T06:03:26.698Z,17.97
2023-06-16T06:03:58.825Z,18.01
2023-06-16T06:04:33.899Z,18.07
2023-06-16T06:05:06.073Z,18.06
2023-06-16T06:05:37.907Z,18.04
2023-06-16T06:06:09.834Z,18.06
2023-06-16T06:06:41.842Z,18.00
2023-06-16T06:07:13.815Z,18.02
2023-06-16T06:07:45.640Z,18.04
2023-06-16T06:08:17.482Z,18.03
2023-06-16T06:08:49.303Z,18.01
2023-06-16T06:09:21.133Z,18.01
2023-06-16T06:09:52.964Z,17.98
2023-06-16T06:10:26.103Z,18.01
2023-06-16T06:11:00.945Z,18.05
2023-06-16T06:11:32.763Z,18.05
2023-06-16T06:12:05.081Z,18.08
2023-06-16T06:12:38.818Z,18.09
2023-06-16T06:13:10.813Z,18.13
2023-06-16T06:13:42.673Z,18.13
2023-06-16T06:14:14.531Z,18.13
2023-06-16T06:14:46.403Z,18.11
2023-06-16T06:15:19.098Z,18.15
2023-06-16T06:15:51.116Z,18.17
2023-06-16T06:16:23.994Z,18.17
2023-06-16T06:16:56.384Z,18.16
2023-06-16T06:17:28.250Z,18.20
2023-06-16T06:18:00.202Z,18.25
2023-06-16T06:18:32.058Z,18.25
2023-06-16T06:19:03.879Z,18.19
2023-06-16T06:19:35.806Z,18.19
2023-06-16T06:20:08.266Z,18.14
2023-06-16T06:20:40.939Z,18.17
2023-06-16T06:21:12.777Z,18.22
2023-06-16T06:21:45.176Z,18.18
2023-06-16T06:22:17.023Z,18.19
2023-06-16T06:22:49.181Z,18.17
2023-06-16T06:23:21.080Z,18.19
2023-06-16T06:23:53.191Z,18.14
2023-06-16T06:24:25.124Z,18.14
2023-06-16T06:24:56.958Z,18.11
2023-06-16T06:25:28.850Z,18.13
2023-06-16T06:26:00.708Z,18.14
2023-06-16T06:26:32.581Z,18.17
2023-06-16T06:27:04.584Z,18.17
2023-06-16T06:27:36.405Z,18.13
2023-06-16T06:28:08.557Z,18.13
2023-06-16T06:28:40.486Z,18.10
2023-06-16T06:29:12.388Z,18.11
2023-06-16T06:29:44.241Z,18.14
2023-06-16T06:30:16.213Z,18.16
2023-06-16T06:30:48.233Z,18.15
2023-06-16T06:31:20.093Z,18.17
2023-06-16T06:31:51.925Z,18.18
2023-06-16T06:32:23.769Z,18.26
2023-06-16T06:32:58.545Z,18.28
2023-06-16T06:33:30.537Z,18.22
2023-06-16T06:34:02.772Z,18.21
2023-06-16T06:34:35.829Z,18.21
2023-06-16T06:35:07.937Z,18.18
2023-06-16T06:35:39.796Z,18.13
2023-06-16T06:36:11.696Z,18.15
2023-06-16T06:36:43.785Z,18.15
2023-06-16T06:37:19.827Z,18.18
2023-06-16T06:37:51.841Z,18.18
2023-06-16T06:38:23.794Z,18.17
2023-06-16T06:38:56.690Z,18.18
2023-06-16T06:39:28.571Z,18.19
2023-06-16T06:40:00.507Z,18.21
2023-06-16T06:40:33.318Z,18.17
2023-06-16T06:41:05.926Z,18.10
2023-06-16T06:41:37.918Z,18.12
2023-06-16T06:42:11.522Z,18.16
2023-06-16T06:42:43.357Z,18.19
2023-06-16T06:43:15.186Z,18.22
2023-06-16T06:43:47.201Z,18.24
2023-06-16T06:44:19.015Z,18.12
2023-06-16T06:44:51.019Z,18.16
2023-06-16T06:45:22.866Z,18.17
2023-06-16T06:45:55.072Z,18.23
2023-06-16T06:46:27.092Z,18.19
2023-06-16T06:46:59.623Z,18.24
2023-06-16T06:47:31.516Z,18.28
2023-06-16T06:48:03.670Z,18.26
2023-06-16T06:48:35.563Z,18.24
2023-06-16T06:49:07.453Z,18.28
2023-06-16T06:49:39.431Z,18.33
2023-06-16T06:50:11.476Z,18.29
2023-06-16T06:50:43.410Z,18.32
2023-06-16T06:51:15.371Z,18.29
2023-06-16T06:51:47.250Z,18.30
2023-06-16T06:52:19.074Z,18.34
2023-06-16T06:52:51.115Z,18.33
2023-06-16T06:53:23.014Z,18.33
2023-06-16T06:53:56.150Z,18.33
2023-06-16T06:54:27.997Z,18.32
2023-06-16T06:54:59.930Z,18.33
2023-06-16T06:55:31.841Z,18.36
2023-06-16T06:56:03.826Z,18.39
2023-06-16T06:56:35.658Z,18.40
2023-06-16T06:57:07.797Z,18.42
2023-06-16T06:57:43.737Z,18.42
2023-06-16T06:58:15.673Z,18.43
2023-06-16T06:58:47.548Z,18.47
2023-06-16T06:59:19.484Z,18.46
2023-06-16T06:59:51.310Z,18.44
2023-06-16T07:00:23.139Z,18.45
2023-06-16T07:00:54.997Z,18.46
2023-06-16T07:01:27.047Z,18.50
2023-06-16T07:01:58.923Z,18.53
2023-06-16T07:02:31.182Z,18.56
2023-06-16T07:03:03.219Z,18.58
2023-06-16T07:03:37.101Z,18.61
2023-06-16T07:04:09.137Z,18.63
2023-06-16T07:04:41.292Z,18.63
2023-06-16T07:05:13.204Z,18.64
2023-06-16T07:05:45.079Z,18.61
2023-06-16T07:06:17.108Z,18.62
2023-06-16T07:06:48.955Z,18.63
2023-06-16T07:07:20.819Z,18.63